createdAt,value
2017-06-04T00:00:07.720Z,27.1
2017-06-04T00:01:07.716Z,27.03
2017-06-04T00:02:07.721Z,27.09
2017-06-04T00:03:07.420Z,27.06
2017-06-04T00:04:07.436Z,26.99
2017-06-04T00:05:07.127Z,27.03
2017-06-04T00:06:07.448Z,27.1
2017-06-04T00:07:07.452Z,27.12
2017-06-04T00:08:07.461Z,27.03
2017-06-04T00:09:07.474Z,27.04
2017-06-04T00:10:07.796Z,27.07
2017-06-04T00:11:07.805Z,26.88
2017-06-04T00:12:07.499Z,26.81
2017-06-04T00:13:07.510Z,27.03
2017-06-04T00:14:07.522Z,27.09
2017-06-04T00:15:07.216Z,27.12
2017-06-04T00:16:07.853Z,26.95
2017-06-04T00:17:22.426Z,26.88
2017-06-04T00:18:07.868Z,26.94
2017-06-04T00:19:07.871Z,26.87
2017-06-04T00:20:07.567Z,27.04
2017-06-04T00:21:07.578Z,27.07
2017-06-04T00:22:07.589Z,27.04
2017-06-04T00:23:07.909Z,26.97
2017-06-04T00:24:07.656Z,27.02
2017-06-04T00:25:07.618Z,27.04
2017-06-04T00:26:07.935Z,26.99
2017-06-04T00:27:07.941Z,27.02
2017-06-04T00:28:07.951Z,27.02
2017-06-04T00:29:08.012Z,27.06
2017-06-04T00:30:07.657Z,27.13
2017-06-04T00:31:07.977Z,27
2017-06-04T00:32:07.987Z,27.13
2017-06-04T00:33:08.025Z,26.99
2017-06-04T00:34:07.692Z,27.06
2017-06-04T00:35:08.020Z,27.14
2017-06-04T00:36:08.030Z,27.06
2017-06-04T00:37:08.036Z,27.07
2017-06-04T00:38:07.778Z,27.03
2017-06-04T00:39:07.743Z,26.95
2017-06-04T00:40:08.063Z,26.97
2017-06-04T00:41:08.065Z,26.84
2017-06-04T00:42:08.075Z,26.87
2017-06-04T00:43:08.086Z,27.07
2017-06-04T00:44:07.783Z,26.99
2017-06-04T00:45:08.153Z,27.14
2017-06-04T00:46:07.492Z,27.06
2017-06-04T00:47:07.813Z,27.12
2017-06-04T00:48:08.133Z,27
2017-06-04T00:49:07.830Z,26.92
2017-06-04T00:50:08.143Z,26.97
2017-06-04T00:51:08.157Z,27.02
2017-06-04T00:52:07.606Z,27.09
2017-06-04T00:53:07.864Z,27.09
2017-06-04T00:54:08.212Z,26.84
2017-06-04T00:55:08.190Z,26.84
2017-06-04T00:56:08.196Z,26.81
2017-06-04T00:57:07.945Z,26.85
2017-06-04T00:58:08.222Z,27.03
2017-06-04T00:59:08.230Z,27
2017-06-04T01:00:08.232Z,26.97
2017-06-04T01:01:08.242Z,26.7
2017-06-04T01:02:07.938Z,26.85
2017-06-04T01:03:07.998Z,26.85
2017-06-04T01:04:08.263Z,26.73
2017-06-04T01:05:07.965Z,26.82
2017-06-04T01:06:08.051Z,26.88
2017-06-04T01:07:07.683Z,26.92
2017-06-04T01:08:08.300Z,26.87
2017-06-04T01:09:08.311Z,26.88
2017-06-04T01:10:08.318Z,26.91
2017-06-04T01:11:08.380Z,26.97
2017-06-04T01:12:08.343Z,26.97
2017-06-04T01:13:08.353Z,27.04
2017-06-04T01:14:07.729Z,27.02
2017-06-04T01:15:08.046Z,27.04
2017-06-04T01:16:08.371Z,26.95
2017-06-04T01:17:08.379Z,26.92
2017-06-04T01:18:08.389Z,26.95
2017-06-04T01:19:08.396Z,27.02
2017-06-04T01:20:08.095Z,27.07
2017-06-04T01:21:08.103Z,26.92
2017-06-04T01:22:08.476Z,26.89
2017-06-04T01:23:08.119Z,26.75
2017-06-04T01:24:08.439Z,26.82
2017-06-04T01:25:08.501Z,26.54
2017-06-04T01:26:08.143Z,26.67
2017-06-04T01:27:07.844Z,26.7
2017-06-04T01:28:08.475Z,26.73
2017-06-04T01:29:08.480Z,26.8
2017-06-04T01:30:08.486Z,26.84
2017-06-04T01:31:08.498Z,26.84
2017-06-04T01:32:08.229Z,26.81
2017-06-04T01:33:08.517Z,26.81
2017-06-04T01:34:08.525Z,26.8
2017-06-04T01:35:08.225Z,26.8
2017-06-04T01:36:08.336Z,26.82
2017-06-04T01:37:08.634Z,26.8
2017-06-04T01:38:08.557Z,26.45
2017-06-04T01:39:08.570Z,26.66
2017-06-04T01:40:08.633Z,26.81
2017-06-04T01:41:08.584Z,26.88
2017-06-04T01:42:08.285Z,27.02
2017-06-04T01:43:08.606Z,26.92
2017-06-04T01:44:08.664Z,26.88
2017-06-04T01:45:08.311Z,26.85
2017-06-04T01:46:08.317Z,26.82
2017-06-04T01:47:08.374Z,26.8
2017-06-04T01:48:08.699Z,26.85
2017-06-04T01:49:08.343Z,26.92
2017-06-04T01:50:08.353Z,26.8
2017-06-04T01:51:08.681Z,26.81
2017-06-04T01:52:08.395Z,26.72
2017-06-04T01:53:08.689Z,26.82
2017-06-04T01:54:08.699Z,26.8
2017-06-04T01:55:08.409Z,26.81
2017-06-04T01:56:08.714Z,26.85
2017-06-04T01:57:08.724Z,26.84
2017-06-04T01:58:08.780Z,26.77
2017-06-04T01:59:08.739Z,26.66
2017-06-04T02:00:08.749Z,26.72
2017-06-04T02:01:08.808Z,26.97
2017-06-04T02:02:08.453Z,26.82
2017-06-04T02:03:08.804Z,26.85
2017-06-04T02:04:08.784Z,26.7
2017-06-04T02:05:08.482Z,26.73
2017-06-04T02:06:08.862Z,26.84
2017-06-04T02:07:08.497Z,26.8
2017-06-04T02:08:08.817Z,26.73
2017-06-04T02:09:08.824Z,26.81
2017-06-04T02:10:08.838Z,26.8
2017-06-04T02:11:08.893Z,26.82
2017-06-04T02:12:08.859Z,26.76
2017-06-04T02:13:08.246Z,26.84
2017-06-04T02:14:08.296Z,26.66
2017-06-04T02:15:08.879Z,26.65
2017-06-04T02:16:08.573Z,26.67
2017-06-04T02:17:08.587Z,26.69
2017-06-04T02:18:08.905Z,26.84
2017-06-04T02:19:08.604Z,26.84
2017-06-04T02:20:08.664Z,26.8
2017-06-04T02:21:08.936Z,26.67
2017-06-04T02:22:08.940Z,26.66
2017-06-04T02:23:09.000Z,26.77
2017-06-04T02:24:08.332Z,26.62
2017-06-04T02:25:08.343Z,26.75
2017-06-04T02:26:09.023Z,26.84
2017-06-04T02:27:08.986Z,26.77
2017-06-04T02:28:08.987Z,26.84
2017-06-04T02:29:09.000Z,26.58
2017-06-04T02:30:08.694Z,26.52
2017-06-04T02:31:08.704Z,26.62
2017-06-04T02:32:09.029Z,26.66
2017-06-04T02:33:09.032Z,26.84
2017-06-04T02:34:08.731Z,26.82
2017-06-04T02:35:09.047Z,26.8
2017-06-04T02:36:09.056Z,26.85
2017-06-04T02:37:09.069Z,26.81
2017-06-04T02:38:08.815Z,26.81
2017-06-04T02:39:09.081Z,26.84
2017-06-04T02:40:09.138Z,26.82
2017-06-04T02:41:09.154Z,26.97
2017-06-04T02:42:08.847Z,26.87
2017-06-04T02:43:08.868Z,26.85
2017-06-04T02:44:09.176Z,26.94
2017-06-04T02:45:09.137Z,26.92
2017-06-04T02:46:09.142Z,26.84
2017-06-04T02:47:09.151Z,26.81
2017-06-04T02:48:08.851Z,26.69
2017-06-04T02:49:08.865Z,26.81
2017-06-04T02:50:08.893Z,26.87
2017-06-04T02:51:08.886Z,26.95
2017-06-04T02:52:08.889Z,26.88
2017-06-04T02:53:08.596Z,26.87
2017-06-04T02:54:09.215Z,26.85
2017-06-04T02:55:09.227Z,26.85
2017-06-04T02:56:09.238Z,26.91
2017-06-04T02:57:09.241Z,26.91
2017-06-04T02:58:09.301Z,26.99
2017-06-04T02:59:09.264Z,26.85
2017-06-04T03:00:08.650Z,26.84
2017-06-04T03:01:09.332Z,26.85
2017-06-04T03:02:09.301Z,26.85
2017-06-04T03:03:09.300Z,26.8
2017-06-04T03:04:09.311Z,26.81
2017-06-04T03:05:09.059Z,26.67
2017-06-04T03:06:09.329Z,26.73
2017-06-04T03:07:09.367Z,26.69
2017-06-04T03:08:09.343Z,26.84
2017-06-04T03:09:09.043Z,26.87
2017-06-04T03:10:09.365Z,26.91
2017-06-04T03:11:09.112Z,26.87
2017-06-04T03:12:09.382Z,26.85
2017-06-04T03:13:09.439Z,26.73
2017-06-04T03:14:09.407Z,26.82
2017-06-04T03:15:09.411Z,26.85
2017-06-04T03:16:09.425Z,26.67
2017-06-04T03:17:09.426Z,26.73
2017-06-04T03:18:09.434Z,26.73
2017-06-04T03:19:09.133Z,26.82
2017-06-04T03:20:08.855Z,26.89
2017-06-04T03:21:09.465Z,26.87
2017-06-04T03:22:09.162Z,26.84
2017-06-04T03:23:09.478Z,26.87
2017-06-04T03:24:09.184Z,26.89
2017-06-04T03:25:09.501Z,26.73
2017-06-04T03:26:09.247Z,26.7
2017-06-04T03:27:09.204Z,26.66
2017-06-04T03:28:09.215Z,26.87
2017-06-04T03:29:09.224Z,26.82
2017-06-04T03:30:09.283Z,26.87
2017-06-04T03:31:09.245Z,26.87
2017-06-04T03:32:09.860Z,26.94
2017-06-04T03:33:09.569Z,26.94
2017-06-04T03:34:09.583Z,26.89
2017-06-04T03:35:08.965Z,26.84
2017-06-04T03:36:09.701Z,26.84
2017-06-04T03:37:09.659Z,26.88
2017-06-04T03:38:09.355Z,26.91
2017-06-04T03:39:09.315Z,26.89
2017-06-04T03:40:09.325Z,26.87
2017-06-04T03:41:09.645Z,26.72
2017-06-04T03:42:09.344Z,26.82
2017-06-04T03:43:09.666Z,26.69
2017-06-04T03:44:09.672Z,26.85
2017-06-04T03:45:09.424Z,26.91
2017-06-04T03:46:09.692Z,26.95
2017-06-04T03:47:09.174Z,26.91
2017-06-04T03:48:09.703Z,26.89
2017-06-04T03:49:09.716Z,26.87
2017-06-04T03:50:09.463Z,26.95
2017-06-04T03:51:09.779Z,26.97
2017-06-04T03:52:09.794Z,26.81
2017-06-04T03:53:09.748Z,26.8
2017-06-04T03:54:09.764Z,26.87
2017-06-04T03:55:09.148Z,26.89
2017-06-04T03:56:09.470Z,27
2017-06-04T03:57:09.530Z,26.85
2017-06-04T03:58:09.803Z,26.85
2017-06-04T03:59:09.805Z,26.89
2017-06-04T04:00:09.502Z,26.85
2017-06-04T04:01:09.826Z,26.82
2017-06-04T04:02:09.831Z,26.88
2017-06-04T04:03:09.843Z,26.91
2017-06-04T04:04:09.857Z,26.85
2017-06-04T04:05:09.550Z,26.89
2017-06-04T04:06:09.560Z,26.84
2017-06-04T04:07:10.177Z,26.92
2017-06-04T04:08:09.574Z,26.87
2017-06-04T04:09:09.585Z,26.84
2017-06-04T04:10:09.906Z,26.84
2017-06-04T04:11:09.914Z,26.73
2017-06-04T04:12:09.924Z,26.76
2017-06-04T04:13:09.933Z,26.77
2017-06-04T04:14:09.689Z,26.82
2017-06-04T04:15:09.953Z,26.84
2017-06-04T04:16:09.698Z,26.85
2017-06-04T04:17:09.969Z,26.88
2017-06-04T04:18:09.673Z,26.87
2017-06-04T04:19:09.988Z,26.81
2017-06-04T04:20:09.688Z,26.81
2017-06-04T04:21:10.004Z,26.95
2017-06-04T04:22:10.064Z,26.89
2017-06-04T04:23:10.072Z,26.84
2017-06-04T04:24:09.775Z,26.84
2017-06-04T04:25:10.041Z,26.88
2017-06-04T04:26:09.738Z,26.91
2017-06-04T04:27:09.798Z,26.85
2017-06-04T04:28:09.757Z,26.84
2017-06-04T04:29:10.079Z,26.76
2017-06-04T04:30:10.139Z,26.76
2017-06-04T04:31:09.524Z,26.87
2017-06-04T04:32:10.201Z,26.82
2017-06-04T04:33:10.110Z,26.84
2017-06-04T04:34:09.807Z,26.91
2017-06-04T04:35:10.179Z,26.87
2017-06-04T04:36:10.138Z,26.82
2017-06-04T04:37:10.146Z,26.81
2017-06-04T04:38:09.893Z,26.89
2017-06-04T04:39:10.163Z,27
2017-06-04T04:40:09.861Z,26.81
2017-06-04T04:41:09.871Z,26.89
2017-06-04T04:42:10.195Z,26.82
2017-06-04T04:43:09.890Z,26.7
2017-06-04T04:44:09.899Z,26.8
2017-06-04T04:45:10.275Z,26.69
2017-06-04T04:46:09.964Z,26.82
2017-06-04T04:47:10.287Z,26.88
2017-06-04T04:48:09.932Z,26.82
2017-06-04T04:49:10.258Z,26.89
2017-06-04T04:50:09.960Z,26.77
2017-06-04T04:51:10.272Z,26.85
2017-06-04T04:52:10.280Z,26.76
2017-06-04T04:53:10.345Z,26.63
2017-06-04T04:54:09.986Z,26.7
2017-06-04T04:55:10.306Z,26.85
2017-06-04T04:56:10.366Z,26.94
2017-06-04T04:57:10.017Z,26.88
2017-06-04T04:58:10.019Z,26.94
2017-06-04T04:59:09.775Z,26.89
2017-06-04T05:00:10.347Z,26.88
2017-06-04T05:01:10.364Z,26.76
2017-06-04T05:02:10.416Z,26.75
2017-06-04T05:03:10.064Z,26.65
2017-06-04T05:04:10.380Z,26.81
2017-06-04T05:05:10.393Z,26.84
2017-06-04T05:06:10.404Z,26.89
2017-06-04T05:07:10.410Z,26.92
2017-06-04T05:08:10.162Z,26.91
2017-06-04T05:09:10.429Z,26.81
2017-06-04T05:10:10.439Z,26.8
2017-06-04T05:11:10.185Z,26.89
2017-06-04T05:12:10.143Z,26.87
2017-06-04T05:13:10.469Z,26.82
2017-06-04T05:14:10.475Z,26.82
2017-06-04T05:15:09.861Z,26.88
2017-06-04T05:16:10.490Z,26.82
2017-06-04T05:17:10.501Z,26.89
2017-06-04T05:18:10.199Z,26.85
2017-06-04T05:19:10.567Z,26.82
2017-06-04T05:20:10.217Z,26.76
2017-06-04T05:21:10.886Z,26.77
2017-06-04T05:22:10.600Z,26.77
2017-06-04T05:23:10.543Z,26.84
2017-06-04T05:24:10.616Z,26.54
2017-06-04T05:25:10.576Z,26.66
2017-06-04T05:26:10.578Z,26.81
2017-06-04T05:27:10.593Z,26.81
2017-06-04T05:28:10.594Z,26.84
2017-06-04T05:29:10.653Z,26.82
2017-06-04T05:30:10.300Z,26.7
2017-06-04T05:31:10.357Z,26.95
2017-06-04T05:32:10.628Z,26.85
2017-06-04T05:33:10.687Z,26.75
2017-06-04T05:34:10.644Z,26.69
2017-06-04T05:35:10.390Z,26.82
2017-06-04T05:36:10.666Z,26.91
2017-06-04T05:37:10.673Z,26.82
2017-06-04T05:38:10.369Z,26.63
2017-06-04T05:39:10.685Z,26.81
2017-06-04T05:40:10.446Z,26.75
2017-06-04T05:41:10.753Z,26.82
2017-06-04T05:42:10.399Z,26.91
2017-06-04T05:43:10.729Z,26.95
2017-06-04T05:44:10.780Z,26.84
2017-06-04T05:45:10.751Z,26.89
2017-06-04T05:46:10.744Z,26.92
2017-06-04T05:47:10.132Z,26.99
2017-06-04T05:48:10.764Z,26.85
2017-06-04T05:49:10.146Z,26.82
2017-06-04T05:50:10.831Z,26.84
2017-06-04T05:51:10.477Z,26.94
2017-06-04T05:52:10.486Z,26.77
2017-06-04T05:53:10.804Z,26.87
2017-06-04T05:54:10.896Z,26.88
2017-06-04T05:55:10.822Z,26.99
2017-06-04T05:56:10.880Z,26.73
2017-06-04T05:57:10.837Z,26.85
2017-06-04T05:58:10.225Z,26.89
2017-06-04T05:59:10.854Z,26.95
2017-06-04T06:00:10.860Z,26.95
2017-06-04T06:01:10.869Z,26.99
2017-06-04T06:02:10.880Z,27.03
2017-06-04T06:03:10.888Z,26.81
2017-06-04T06:04:10.586Z,26.91
2017-06-04T06:05:10.905Z,26.92
2017-06-04T06:06:10.605Z,26.87
2017-06-04T06:07:10.613Z,27.03
2017-06-04T06:08:10.933Z,27.03
2017-06-04T06:09:10.321Z,27.03
2017-06-04T06:10:10.950Z,26.84
2017-06-04T06:11:10.647Z,26.92
2017-06-04T06:12:10.656Z,26.91
2017-06-04T06:13:10.977Z,27
2017-06-04T06:14:10.678Z,27.07
2017-06-04T06:15:11.028Z,26.97
2017-06-04T06:16:11.008Z,26.81
2017-06-04T06:17:11.011Z,26.84
2017-06-04T06:18:10.709Z,26.89
2017-06-04T06:19:11.031Z,27
2017-06-04T06:20:10.724Z,26.92
2017-06-04T06:21:11.097Z,27.03
2017-06-04T06:22:11.060Z,27.09
2017-06-04T06:23:11.115Z,27.09
2017-06-04T06:24:11.073Z,27.1
2017-06-04T06:25:11.079Z,26.88
2017-06-04T06:26:10.781Z,26.89
2017-06-04T06:27:11.103Z,27
2017-06-04T06:28:10.485Z,26.95
2017-06-04T06:29:10.807Z,26.99
2017-06-04T06:30:11.125Z,26.85
2017-06-04T06:31:11.131Z,26.82
2017-06-04T06:32:11.139Z,26.92
2017-06-04T06:33:11.148Z,27.03
2017-06-04T06:34:10.897Z,26.94
2017-06-04T06:35:11.215Z,27.07
2017-06-04T06:36:11.174Z,27.1
2017-06-04T06:37:10.875Z,27.29
2017-06-04T06:38:10.881Z,27.39
2017-06-04T06:39:10.893Z,27.39
2017-06-04T06:40:10.947Z,27.4
2017-06-04T06:41:11.214Z,27.34
2017-06-04T06:42:10.918Z,27.32
2017-06-04T06:43:10.923Z,27.4
2017-06-04T06:44:10.932Z,27
2017-06-04T06:45:10.940Z,27.13
2017-06-04T06:46:10.951Z,27.28
2017-06-04T06:47:11.319Z,27.34
2017-06-04T06:48:11.281Z,27.31
2017-06-04T06:49:11.288Z,27.25
2017-06-04T06:50:11.296Z,27.17
2017-06-04T06:51:10.996Z,27.12
2017-06-04T06:52:11.322Z,27.27
2017-06-04T06:53:11.009Z,27.24
2017-06-04T06:54:11.386Z,27.32
2017-06-04T06:55:10.769Z,27.29
2017-06-04T06:56:11.348Z,27.4
2017-06-04T06:57:11.359Z,27.57
2017-06-04T06:58:11.053Z,27.59
2017-06-04T06:59:11.386Z,27.47
2017-06-04T07:00:11.324Z,27.55
2017-06-04T07:01:10.771Z,27.49
2017-06-04T07:02:11.404Z,27.41
2017-06-04T07:03:11.098Z,27.4
2017-06-04T07:04:11.425Z,27.21
2017-06-04T07:05:11.123Z,27.22
2017-06-04T07:06:11.434Z,27.34
2017-06-04T07:07:11.454Z,27.21
2017-06-04T07:08:11.451Z,27.36
2017-06-04T07:09:11.461Z,27.31
2017-06-04T07:10:11.162Z,27.84
2017-06-04T07:11:11.174Z,28.11
2017-06-04T07:12:11.490Z,28.34
2017-06-04T07:13:11.529Z,27.72
2017-06-04T07:14:11.505Z,28.22
2017-06-04T07:15:11.205Z,28.55
2017-06-04T07:16:10.904Z,28.66
2017-06-04T07:17:11.534Z,28.44
2017-06-04T07:18:10.974Z,28.12
2017-06-04T07:19:11.553Z,27.9
2017-06-04T07:20:11.563Z,27.69
2017-06-04T07:21:11.568Z,27.7
2017-06-04T07:22:11.271Z,27.49
2017-06-04T07:23:11.325Z,27.28
2017-06-04T07:24:10.976Z,27.28
2017-06-04T07:25:11.657Z,27.36
2017-06-04T07:26:11.302Z,27.24
2017-06-04T07:27:11.311Z,27.39
2017-06-04T07:28:11.320Z,27.44
2017-06-04T07:29:11.644Z,27.5
2017-06-04T07:30:11.651Z,27.51
2017-06-04T07:31:11.343Z,27.7
2017-06-04T07:32:11.666Z,27.75
2017-06-04T07:33:11.365Z,27.62
2017-06-04T07:34:11.737Z,27.63
2017-06-04T07:35:11.379Z,27.62
2017-06-04T07:36:11.389Z,27.4
2017-06-04T07:37:11.448Z,27.25
2017-06-04T07:38:11.714Z,27.21
2017-06-04T07:39:11.725Z,27.28
2017-06-04T07:40:11.785Z,27.34
2017-06-04T07:41:11.480Z,27.09
2017-06-04T07:42:11.442Z,27.31
2017-06-04T07:43:11.809Z,27.62
2017-06-04T07:44:11.460Z,27.78
2017-06-04T07:45:11.777Z,28.07
2017-06-04T07:46:11.473Z,28.34
2017-06-04T07:47:11.170Z,28.93
2017-06-04T07:48:11.803Z,29.6
2017-06-04T07:49:11.191Z,29.06
2017-06-04T07:50:11.506Z,28.34
2017-06-04T07:51:11.830Z,28.06
2017-06-04T07:52:11.886Z,27.6
2017-06-04T07:53:11.895Z,27.79
2017-06-04T07:54:11.542Z,27.79
2017-06-04T07:55:11.863Z,28.03
2017-06-04T07:56:11.302Z,27.75
2017-06-04T07:57:11.306Z,27.36
2017-06-04T07:58:11.889Z,27.72
2017-06-04T07:59:11.896Z,27.79
2017-06-04T08:00:11.932Z,28
2017-06-04T08:01:11.917Z,28.04
2017-06-04T08:02:11.923Z,28
2017-06-04T08:03:11.981Z,27.87
2017-06-04T08:04:11.631Z,27.94
2017-06-04T08:05:11.685Z,28.02
2017-06-04T08:06:11.959Z,28
2017-06-04T08:07:11.963Z,27.94
2017-06-04T08:08:11.970Z,27.92
2017-06-04T08:09:11.983Z,27.84
2017-06-04T08:10:11.365Z,27.47
2017-06-04T08:11:11.685Z,27.55
2017-06-04T08:12:12.007Z,27.47
2017-06-04T08:13:11.389Z,27.41
2017-06-04T08:14:11.711Z,27.59
2017-06-04T08:15:41.176Z,27.67
2017-06-04T08:16:12.091Z,27.51
2017-06-04T08:17:11.737Z,27.74
2017-06-04T08:18:12.101Z,27.51
2017-06-04T08:19:12.115Z,27.77
2017-06-04T08:20:26.645Z,28.12
2017-06-04T08:21:12.129Z,28.22
2017-06-04T08:22:12.139Z,28.24
2017-06-04T08:23:12.097Z,28.02
2017-06-04T08:24:11.796Z,28.04
2017-06-04T08:25:11.803Z,27.88
2017-06-04T08:26:12.125Z,28.02
2017-06-04T08:27:11.881Z,28.12
2017-06-04T08:28:12.141Z,27.87
2017-06-04T08:29:26.722Z,27.87
2017-06-04T08:30:12.161Z,27.94
2017-06-04T08:31:12.216Z,27.92
2017-06-04T08:32:12.229Z,27.99
2017-06-04T08:33:12.183Z,27.93
2017-06-04T08:34:12.195Z,27.94
2017-06-04T08:36:12.213Z,28.06
2017-06-04T08:37:12.225Z,27.97
2017-06-04T08:38:11.607Z,27.94
2017-06-04T08:40:12.551Z,27.96
2017-06-04T08:43:12.018Z,27.88
2017-06-04T08:44:12.281Z,27.87
2017-06-04T08:45:11.982Z,27.81
2017-06-04T08:46:26.872Z,27.69
2017-06-04T08:47:26.880Z,27.72
2017-06-04T08:49:26.589Z,27.49
2017-06-04T08:50:26.912Z,27.55
2017-06-04T08:51:12.394Z,27.54
2017-06-04T08:52:12.351Z,27.24
2017-06-04T08:54:12.107Z,27.13
2017-06-04T08:55:12.121Z,26.99
2017-06-04T08:57:12.394Z,27.14
2017-06-04T08:59:11.786Z,27.54
2017-06-04T09:00:12.151Z,27.62
2017-06-04T09:01:12.423Z,27.46
2017-06-04T09:03:12.440Z,27.31
2017-06-04T09:04:12.445Z,27.32
2017-06-04T09:05:27.026Z,27.1
2017-06-04T09:06:26.720Z,27.44
2017-06-04T09:07:27.042Z,27.51
2017-06-04T09:08:12.478Z,27.4
2017-06-04T09:09:26.848Z,27.51
2017-06-04T09:10:12.184Z,27.6
2017-06-04T09:11:12.510Z,27.5
2017-06-04T09:12:12.514Z,27.55
2017-06-04T09:13:27.092Z,27.59
2017-06-04T09:14:12.532Z,27.51
2017-06-04T09:15:12.536Z,27.55
2017-06-04T09:16:27.119Z,27.25
2017-06-04T09:17:12.244Z,27.37
2017-06-04T09:20:12.266Z,27.36
2017-06-04T09:21:27.163Z,27.5
2017-06-04T09:23:41.753Z,27.46
2017-06-04T09:24:27.184Z,27.51
2017-06-04T09:26:12.322Z,27.72
2017-06-04T09:27:12.325Z,27.84
2017-06-04T09:28:27.220Z,27.79
2017-06-04T09:29:12.343Z,27.85
2017-06-04T09:31:27.243Z,27.66
2017-06-04T09:32:12.683Z,27.63
2017-06-04T09:33:27.260Z,27.55
2017-06-04T09:34:27.270Z,27.57
2017-06-04T09:35:26.966Z,27.62
2017-06-04T09:36:12.401Z,27.67
2017-06-04T09:37:12.726Z,27.51
2017-06-04T09:38:12.780Z,27.5
2017-06-04T09:39:12.788Z,27.5
2017-06-04T09:41:27.330Z,27.51
2017-06-04T09:43:12.827Z,27.51
2017-06-04T09:45:12.790Z,27.44
2017-06-04T09:47:12.860Z,27.49
2017-06-04T09:48:27.389Z,27.49
2017-06-04T09:49:12.564Z,27.44
2017-06-04T09:50:27.407Z,27.5
2017-06-04T09:51:12.218Z,27.46
2017-06-04T09:52:12.850Z,27.5
2017-06-04T09:53:27.429Z,27.69
2017-06-04T09:54:12.555Z,27.75
2017-06-04T09:56:12.573Z,27.85
2017-06-04T09:57:12.942Z,27.77
2017-06-04T09:58:27.475Z,27.84
2017-06-04T10:00:12.665Z,27.77
2017-06-04T10:03:12.942Z,27.66
2017-06-04T10:04:12.689Z,27.72
2017-06-04T10:05:27.531Z,27.6
2017-06-04T10:06:12.969Z,27.66
2017-06-04T10:07:12.984Z,27.55
2017-06-04T10:08:27.556Z,27.66
2017-06-04T10:10:13.048Z,27.65
2017-06-04T10:12:13.016Z,27.77
2017-06-04T10:13:44.798Z,27.81
2017-06-04T10:15:27.665Z,27.88
2017-06-04T10:16:27.674Z,27.84
2017-06-04T10:18:13.069Z,28
2017-06-04T10:19:42.271Z,27.75
2017-06-04T10:20:12.776Z,27.69
2017-06-04T10:21:12.781Z,27.78
2017-06-04T10:22:27.674Z,27.74
2017-06-04T10:23:12.804Z,27.7
2017-06-04T10:24:13.118Z,27.87
2017-06-04T10:25:13.131Z,27.92
2017-06-04T10:26:12.826Z,27.9
2017-06-04T10:27:12.885Z,27.85
2017-06-04T10:29:12.903Z,27.72
2017-06-04T10:30:13.170Z,27.81
2017-06-04T10:32:13.188Z,27.9
2017-06-04T10:33:12.942Z,27.92
2017-06-04T10:34:12.943Z,27.92
2017-06-04T10:35:27.790Z,27.97
2017-06-04T10:37:27.858Z,27.93
2017-06-04T10:38:27.815Z,27.87
2017-06-04T10:39:27.822Z,27.82
2017-06-04T10:41:12.958Z,27.82
2017-06-04T10:42:12.968Z,27.94
2017-06-04T10:43:27.856Z,28.03
2017-06-04T10:44:12.987Z,27.94
2017-06-04T10:46:13.364Z,27.87
2017-06-04T10:48:27.901Z,27.85
2017-06-04T10:49:13.026Z,28
2017-06-04T10:50:27.609Z,27.85
2017-06-04T10:51:13.356Z,27.93
2017-06-04T10:52:27.962Z,27.84
2017-06-04T10:53:13.373Z,27.82
2017-06-04T10:54:13.385Z,27.74
2017-06-04T10:55:13.128Z,27.81
2017-06-04T10:56:27.660Z,27.92
2017-06-04T10:57:27.669Z,28
2017-06-04T10:58:13.157Z,28.02
2017-06-04T10:59:13.120Z,27.97
2017-06-04T11:00:13.496Z,28.03
2017-06-04T11:01:28.015Z,27.97
2017-06-04T11:02:13.450Z,27.97
2017-06-04T11:04:27.734Z,27.99
2017-06-04T11:05:13.165Z,28.11
2017-06-04T11:06:28.061Z,28.03
2017-06-04T11:07:13.550Z,27.94
2017-06-04T11:08:13.503Z,27.88
2017-06-04T11:10:13.522Z,27.88
2017-06-04T11:11:13.534Z,27.81
2017-06-04T11:12:13.590Z,27.85
2017-06-04T11:14:13.250Z,27.84
2017-06-04T11:15:13.617Z,27.81
2017-06-04T11:16:13.575Z,27.92
2017-06-04T11:17:27.848Z,27.82
2017-06-04T11:18:27.853Z,27.88
2017-06-04T11:19:28.175Z,27.85
2017-06-04T11:20:13.607Z,27.9
2017-06-04T11:21:28.189Z,27.82
2017-06-04T11:22:13.634Z,27.85
2017-06-04T11:23:13.668Z,27.74
2017-06-04T11:24:28.215Z,27.88
2017-06-04T11:25:13.341Z,27.82
2017-06-04T11:27:13.668Z,28
2017-06-04T11:28:13.496Z,27.75
2017-06-04T11:29:13.683Z,27.74
2017-06-04T11:30:13.695Z,27.9
2017-06-04T11:31:28.272Z,27.99
2017-06-04T11:32:28.279Z,28.14
2017-06-04T11:33:28.290Z,28
2017-06-04T11:35:28.307Z,27.84
2017-06-04T11:36:28.315Z,27.84
2017-06-04T11:38:13.808Z,27.67
2017-06-04T11:39:13.766Z,27.81
2017-06-04T11:40:13.781Z,27.84
2017-06-04T11:41:14.087Z,27.92
2017-06-04T11:42:28.418Z,28
2017-06-04T11:44:28.385Z,27.94
2017-06-04T11:45:13.508Z,28.09
2017-06-04T11:46:13.837Z,28.11
2017-06-04T11:48:13.222Z,28.03
2017-06-04T11:49:28.477Z,28.02
2017-06-04T11:52:13.880Z,27.94
2017-06-04T11:54:13.901Z,28.04
2017-06-04T11:55:13.908Z,28
2017-06-04T11:56:13.658Z,27.93
2017-06-04T11:57:13.926Z,28.03
2017-06-04T11:58:13.674Z,27.82
2017-06-04T12:00:13.952Z,27.82
2017-06-04T12:01:28.535Z,27.77
2017-06-04T12:02:28.545Z,27.84
2017-06-04T12:03:13.721Z,27.87
2017-06-04T12:04:14.037Z,27.87
2017-06-04T12:05:13.699Z,27.87
2017-06-04T12:07:14.016Z,27.59
2017-06-04T12:08:28.641Z,27.59
2017-06-04T12:09:28.306Z,27.88
2017-06-04T12:11:28.680Z,27.63
2017-06-04T12:12:14.106Z,27.65
2017-06-04T12:13:28.636Z,27.84
2017-06-04T12:14:13.769Z,27.81
2017-06-04T12:15:28.699Z,27.81
2017-06-04T12:16:14.097Z,27.72
2017-06-04T12:17:13.843Z,27.67
2017-06-04T12:18:13.794Z,27.78
2017-06-04T12:19:14.115Z,27.84
2017-06-04T12:20:14.123Z,27.88
2017-06-04T12:21:28.755Z,27.81
2017-06-04T12:22:28.714Z,27.82
2017-06-04T12:23:13.835Z,27.75
2017-06-04T12:24:13.848Z,27.51
2017-06-04T12:25:14.170Z,27.74
2017-06-04T12:26:14.211Z,27.7
2017-06-04T12:27:14.185Z,27.66
2017-06-04T12:28:14.193Z,27.36
2017-06-04T12:29:13.889Z,27.54
2017-06-04T12:30:14.211Z,27.75
2017-06-04T12:31:28.837Z,27.81
2017-06-04T12:32:14.272Z,27.78
2017-06-04T12:33:13.613Z,27.69
2017-06-04T12:34:14.246Z,27.66
2017-06-04T12:35:43.395Z,27.66
2017-06-04T12:36:13.965Z,27.85
2017-06-04T12:37:14.373Z,27.87
2017-06-04T12:38:13.965Z,27.78
2017-06-04T12:39:14.283Z,27.78
2017-06-04T12:40:13.983Z,27.82
2017-06-04T12:41:13.988Z,27.87
2017-06-04T12:42:13.999Z,28.02
2017-06-04T12:43:13.692Z,28.07
2017-06-04T12:44:14.331Z,28
2017-06-04T12:45:28.910Z,28.14
2017-06-04T12:46:28.604Z,27.84
2017-06-04T12:47:28.924Z,27.82
2017-06-04T12:48:14.067Z,27.84
2017-06-04T12:49:14.369Z,28
2017-06-04T12:50:14.375Z,27.97
2017-06-04T12:51:29.008Z,27.97
2017-06-04T12:52:14.088Z,27.81
2017-06-04T12:53:14.401Z,27.93
2017-06-04T12:54:14.412Z,27.7
2017-06-04T12:55:29.039Z,27.84
2017-06-04T12:57:29.008Z,27.85
2017-06-04T13:00:14.154Z,27.69
2017-06-04T13:01:14.470Z,27.69
2017-06-04T13:02:14.472Z,27.57
2017-06-04T13:03:14.484Z,27.54
2017-06-04T13:04:28.754Z,27.55
2017-06-04T13:05:14.534Z,27.36
2017-06-04T13:06:14.512Z,27.55
2017-06-04T13:07:28.829Z,27.29
2017-06-04T13:08:14.215Z,27
2017-06-04T13:09:29.104Z,27.03
2017-06-04T13:10:14.233Z,27.12
2017-06-04T13:11:14.547Z,27.09
2017-06-04T13:12:14.247Z,27.4
2017-06-04T13:13:14.560Z,27.47
2017-06-04T13:14:14.259Z,27.54
2017-06-04T13:15:14.584Z,27.59
2017-06-04T13:16:14.590Z,27.55
2017-06-04T13:17:14.599Z,27.72
2017-06-04T13:18:14.610Z,27.62
2017-06-04T13:19:14.612Z,27.66
2017-06-04T13:20:14.672Z,27.67
2017-06-04T13:21:14.318Z,27.74
2017-06-04T13:22:29.212Z,27.74
2017-06-04T13:23:14.650Z,27.62
2017-06-04T13:24:14.652Z,27.63
2017-06-04T13:25:28.925Z,27.5
2017-06-04T13:26:29.243Z,27.51
2017-06-04T13:27:14.729Z,27.7
2017-06-04T13:28:14.689Z,27.51
2017-06-04T13:29:14.384Z,27.67
2017-06-04T13:30:14.711Z,27.7
2017-06-04T13:31:28.976Z,27.74
2017-06-04T13:32:14.721Z,27.72
2017-06-04T13:34:14.747Z,27.69
2017-06-04T13:35:14.794Z,27.66
2017-06-04T13:36:14.446Z,27.67
2017-06-04T13:37:29.025Z,27.72
2017-06-04T13:38:29.083Z,27.87
2017-06-04T13:39:14.794Z,27.94
2017-06-04T13:40:29.367Z,27.87
2017-06-04T13:41:14.794Z,27.92
2017-06-04T13:42:14.809Z,28.04
2017-06-04T13:43:14.194Z,27.87
2017-06-04T13:44:29.447Z,27.94
2017-06-04T13:45:14.526Z,27.97
2017-06-04T13:46:14.843Z,27.85